createdAt,value
2023-03-22T00:02:47.444Z,943.00
2023-03-22T00:06:47.399Z,942.00
2023-03-22T00:10:47.402Z,936.00
2023-03-22T00:14:47.461Z,933.00
2023-03-22T00:18:47.379Z,932.00
2023-03-22T00:22:47.390Z,936.00
2023-03-22T00:26:47.440Z,927.00
2023-03-22T00:30:47.365Z,922.00
2023-03-22T00:34:47.476Z,920.00
2023-03-22T00:38:47.400Z,919.00
2023-03-22T00:42:47.362Z,910.00
2023-03-22T00:46:47.345Z,911.00
2023-03-22T00:50:47.467Z,910.00
2023-03-22T00:54:47.379Z,901.00
2023-03-22T00:58:47.416Z,896.00
2023-03-22T01:02:47.533Z,899.00
2023-03-22T01:06:47.470Z,891.00
2023-03-22T01:10:47.485Z,883.00
2023-03-22T01:14:47.912Z,877.00
2023-03-22T01:18:47.562Z,880.00
2023-03-22T01:22:47.604Z,878.00
2023-03-22T01:26:47.664Z,867.00
2023-03-22T01:30:47.772Z,866.00
2023-03-22T01:34:47.715Z,869.00
2023-03-22T01:38:47.843Z,875.00
2023-03-22T01:42:48.024Z,870.00
2023-03-22T01:46:47.889Z,862.00
2023-03-22T01:50:48.439Z,865.00
2023-03-22T01:54:47.899Z,863.00
2023-03-22T01:58:47.953Z,855.00
2023-03-22T02:02:47.983Z,848.00
2023-03-22T02:06:48.921Z,855.00
2023-03-22T02:10:48.030Z,849.00
2023-03-22T02:14:48.052Z,842.00
2023-03-22T02:18:48.124Z,840.00
2023-03-22T02:22:48.257Z,837.00
2023-03-22T02:26:48.224Z,836.00
2023-03-22T02:30:48.363Z,833.00
2023-03-22T02:34:48.273Z,833.00
2023-03-22T02:38:48.344Z,824.00
2023-03-22T02:42:48.365Z,827.00
2023-03-22T02:46:48.530Z,827.00
2023-03-22T02:50:48.519Z,820.00
2023-03-22T02:54:48.541Z,817.00
2023-03-22T02:58:48.569Z,811.00
2023-03-22T03:02:48.626Z,811.00
2023-03-22T03:06:48.704Z,808.00
2023-03-22T03:10:48.731Z,802.00
2023-03-22T03:14:48.917Z,796.00
2023-03-22T03:18:48.928Z,796.00
2023-03-22T03:22:49.022Z,794.00
2023-03-22T03:26:49.079Z,787.00
2023-03-22T03:30:49.150Z,797.00
2023-03-22T03:34:49.174Z,795.00
2023-03-22T03:38:49.257Z,796.00
2023-03-22T03:42:49.375Z,790.00
2023-03-22T03:46:49.415Z,794.00
2023-03-22T03:50:49.484Z,790.00
2023-03-22T03:54:49.497Z,789.00
2023-03-22T03:58:49.577Z,788.00
2023-03-22T04:02:49.643Z,785.00
2023-03-22T04:06:49.784Z,786.00
2023-03-22T04:10:49.854Z,777.00
2023-03-22T04:14:49.970Z,775.00
2023-03-22T04:18:50.148Z,774.00
2023-03-22T04:22:50.079Z,770.00
2023-03-22T04:26:50.155Z,773.00
2023-03-22T04:30:50.347Z,768.00
2023-03-22T04:34:50.370Z,766.00
2023-03-22T04:38:50.421Z,763.00
2023-03-22T04:42:50.487Z,765.00
2023-03-22T04:46:50.677Z,772.00
2023-03-22T04:50:50.808Z,770.00
2023-03-22T04:54:50.909Z,760.00
2023-03-22T04:58:51.002Z,757.00
2023-03-22T05:02:51.140Z,756.00
2023-03-22T05:06:51.252Z,752.00
2023-03-22T05:10:51.328Z,748.00
2023-03-22T05:14:51.618Z,740.00
2023-03-22T05:18:51.552Z,741.00
2023-03-22T05:22:52.057Z,741.00
2023-03-22T05:26:51.926Z,726.00
2023-03-22T05:30:52.014Z,729.00
2023-03-22T05:34:52.138Z,737.00
2023-03-22T05:38:52.063Z,729.00
2023-03-22T05:42:52.135Z,726.00
2023-03-22T05:46:52.366Z,726.00
2023-03-22T05:50:52.272Z,725.00
2023-03-22T05:54:55.037Z,724.00
2023-03-22T05:58:52.225Z,728.00
2023-03-22T06:02:52.356Z,726.00
2023-03-22T06:06:52.064Z,715.00
2023-03-22T06:10:52.167Z,713.00
2023-03-22T06:14:52.040Z,709.00
2023-03-22T06:18:52.071Z,706.00
2023-03-22T06:22:52.002Z,708.00
2023-03-22T06:26:52.042Z,705.00
2023-03-22T06:30:55.979Z,718.00
2023-03-22T06:34:58.653Z,727.00
2023-03-22T06:38:55.135Z,826.00
2023-03-22T06:42:52.564Z,889.00
2023-03-22T06:46:51.815Z,1024.00
2023-03-22T06:50:52.054Z,1153.00
2023-03-22T06:59:10.747Z,1366.00
2023-03-22T07:03:10.816Z,1406.00
2023-03-22T07:15:48.282Z,1459.00
2023-03-22T07:24:07.233Z,1540.00
2023-03-22T07:28:07.117Z,1567.00
2023-03-22T07:32:07.252Z,1570.00
2023-03-22T07:36:07.302Z,1628.00
2023-03-22T07:40:07.977Z,1647.00
2023-03-22T07:44:17.655Z,1662.00
2023-03-22T07:48:08.337Z,1678.00
2023-03-22T07:52:10.879Z,1689.00
2023-03-22T07:56:07.551Z,1674.00
2023-03-22T08:00:07.556Z,1539.00
2023-03-22T08:04:07.256Z,1496.00
2023-03-22T08:08:07.186Z,1538.00
2023-03-22T08:12:07.217Z,1390.00
2023-03-22T08:16:07.214Z,1454.00
2023-03-22T08:20:07.100Z,1433.00
2023-03-22T08:24:07.451Z,1526.00
2023-03-22T08:28:07.228Z,1228.00
2023-03-22T08:32:07.257Z,1195.00
2023-03-22T08:36:08.428Z,1146.00
2023-03-22T08:40:07.581Z,1049.00
2023-03-22T08:44:07.512Z,1013.00
2023-03-22T08:48:08.479Z,978.00
2023-03-22T08:52:07.789Z,900.00
2023-03-22T08:56:07.944Z,872.00
2023-03-22T09:00:08.119Z,770.00
2023-03-22T09:04:10.534Z,732.00
2023-03-22T09:08:08.372Z,619.00
2023-03-22T09:12:08.164Z,640.00
2023-03-22T09:16:07.990Z,604.00
2023-03-22T09:20:12.702Z,559.00
2023-03-22T09:24:07.938Z,639.00
2023-03-22T09:28:10.955Z,652.00
2023-03-22T09:32:10.174Z,634.00
2023-03-22T09:36:07.757Z,597.00
2023-03-22T09:40:11.282Z,576.00
2023-03-22T09:44:08.040Z,564.00
2023-03-22T09:48:08.129Z,674.00
2023-03-22T09:52:08.054Z,768.00
2023-03-22T09:56:07.714Z,940.00
2023-03-22T10:00:08.517Z,968.00
2023-03-22T10:04:08.108Z,987.00
2023-03-22T10:08:07.643Z,1010.00
2023-03-22T10:12:07.478Z,1064.00
2023-03-22T10:16:07.510Z,1120.00
2023-03-22T10:20:07.497Z,1154.00
2023-03-22T10:24:07.334Z,1285.00
2023-03-22T10:28:07.404Z,1389.00
2023-03-22T10:32:07.257Z,1445.00
2023-03-22T10:36:07.327Z,1502.00
2023-03-22T10:40:07.445Z,1187.00
2023-03-22T10:44:07.432Z,949.00
2023-03-22T10:48:07.732Z,856.00
2023-03-22T10:52:08.474Z,730.00
2023-03-22T10:56:08.786Z,694.00
2023-03-22T11:00:08.175Z,622.00
2023-03-22T11:04:08.306Z,597.00
2023-03-22T11:08:08.286Z,575.00
2023-03-22T11:12:08.264Z,532.00
2023-03-22T11:16:08.261Z,507.00
2023-03-22T11:20:08.206Z,501.00
2023-03-22T11:24:09.150Z,491.00
2023-03-22T11:28:08.408Z,483.00
2023-03-22T11:32:08.632Z,486.00
2023-03-22T11:36:08.151Z,505.00
2023-03-22T11:40:08.058Z,520.00
2023-03-22T11:44:07.959Z,531.00
2023-03-22T11:48:08.360Z,526.00
2023-03-22T11:52:08.067Z,510.00
2023-03-22T11:56:08.054Z,482.00
2023-03-22T12:00:08.151Z,478.00
2023-03-22T12:04:08.076Z,471.00
2023-03-22T12:08:08.166Z,456.00
2023-03-22T12:12:07.839Z,448.00
2023-03-22T12:16:07.983Z,443.00
2023-03-22T12:20:08.080Z,538.00
2023-03-22T12:24:07.827Z,540.00
2023-03-22T12:28:07.743Z,547.00
2023-03-22T12:32:07.743Z,555.00
2023-03-22T12:36:08.456Z,559.00
2023-03-22T12:40:07.655Z,568.00
2023-03-22T12:44:07.926Z,568.00
2023-03-22T12:48:08.036Z,569.00
2023-03-22T12:52:07.769Z,571.00
2023-03-22T12:56:07.749Z,577.00
2023-03-22T13:00:07.670Z,582.00
2023-03-22T13:04:07.702Z,588.00
2023-03-22T13:08:07.552Z,590.00
2023-03-22T13:12:08.026Z,596.00
2023-03-22T13:16:09.485Z,598.00
2023-03-22T13:20:07.690Z,596.00
2023-03-22T13:24:07.585Z,599.00
2023-03-22T13:28:07.607Z,605.00
2023-03-22T13:32:07.694Z,606.00
2023-03-22T13:36:07.584Z,613.00
2023-03-22T13:40:07.492Z,614.00
2023-03-22T13:44:07.438Z,617.00
2023-03-22T13:48:07.627Z,615.00
2023-03-22T13:52:07.350Z,614.00
2023-03-22T13:56:07.383Z,612.00
2023-03-22T14:00:12.116Z,618.00
2023-03-22T14:04:08.695Z,620.00
2023-03-22T14:08:07.388Z,619.00
2023-03-22T14:12:07.508Z,617.00
2023-03-22T14:16:08.172Z,617.00
2023-03-22T14:20:08.020Z,620.00
2023-03-22T14:49:09.118Z,604.00
2023-03-22T14:53:09.372Z,604.00
2023-03-22T14:57:09.631Z,610.00
2023-03-22T15:01:09.758Z,602.00
2023-03-22T15:05:10.008Z,602.00
2023-03-22T15:09:10.173Z,600.00
2023-03-22T15:13:10.211Z,593.00
2023-03-22T15:17:10.245Z,595.00
2023-03-22T15:21:10.123Z,589.00
2023-03-22T15:25:10.077Z,587.00
2023-03-22T15:29:09.996Z,583.00
2023-03-22T15:33:09.965Z,584.00
2023-03-22T15:37:09.992Z,591.00
2023-03-22T15:41:09.984Z,606.00
2023-03-22T15:45:10.040Z,609.00
2023-03-22T15:49:09.904Z,616.00
2023-03-22T15:53:09.885Z,614.00
2023-03-22T15:57:09.871Z,620.00
2023-03-22T16:01:09.835Z,620.00
2023-03-22T16:05:09.723Z,614.00
2023-03-22T16:09:09.713Z,612.00
2023-03-22T16:13:09.742Z,609.00
2023-03-22T16:17:09.634Z,605.00
2023-03-22T16:21:09.562Z,609.00
2023-03-22T16:25:09.527Z,613.00
2023-03-22T16:29:09.673Z,618.00
2023-03-22T16:33:09.650Z,617.00
2023-03-22T16:37:09.599Z,617.00
2023-03-22T16:41:09.527Z,615.00
2023-03-22T16:45:09.521Z,623.00
2023-03-22T16:49:09.469Z,630.00
2023-03-22T16:53:09.493Z,628.00
2023-03-22T16:57:09.446Z,620.00
2023-03-22T17:01:09.366Z,621.00
2023-03-22T17:05:09.359Z,627.00
2023-03-22T17:09:09.296Z,625.00
2023-03-22T17:13:09.277Z,623.00
2023-03-22T17:17:09.271Z,620.00
2023-03-22T17:21:09.313Z,616.00
2023-03-22T17:25:09.384Z,619.00
2023-03-22T17:29:09.416Z,617.00
2023-03-22T17:33:09.794Z,616.00
2023-03-22T17:37:09.417Z,615.00
2023-03-22T17:41:09.448Z,614.00
2023-03-22T17:45:10.016Z,619.00
2023-03-22T17:49:09.376Z,617.00
2023-03-22T17:53:23.107Z,615.00
2023-03-22T17:57:36.286Z,619.00
2023-03-22T18:01:10.473Z,614.00
2023-03-22T18:05:09.268Z,612.00
2023-03-22T18:09:09.240Z,609.00
2023-03-22T18:13:09.199Z,607.00
2023-03-22T18:17:09.242Z,611.00
2023-03-22T18:21:09.101Z,611.00
2023-03-22T18:25:09.063Z,607.00
2023-03-22T18:29:09.027Z,603.00
2023-03-22T18:33:09.034Z,602.00
2023-03-22T18:37:09.028Z,600.00
2023-03-22T18:41:34.486Z,594.00
2023-03-22T18:45:10.602Z,596.00
2023-03-22T18:49:08.894Z,597.00
2023-03-22T18:53:18.438Z,597.00
2023-03-22T18:57:10.813Z,593.00
2023-03-22T19:01:08.766Z,591.00
2023-03-22T19:05:08.680Z,585.00
2023-03-22T19:09:08.653Z,591.00
2023-03-22T19:13:08.630Z,588.00
2023-03-22T19:17:08.719Z,589.00
2023-03-22T19:21:13.393Z,590.00
2023-03-22T19:25:09.722Z,588.00
2023-03-22T19:29:08.727Z,589.00
2023-03-22T19:33:27.686Z,584.00
2023-03-22T19:37:09.639Z,582.00
2023-03-22T19:41:40.557Z,573.00
2023-03-22T19:45:09.558Z,567.00
2023-03-22T19:49:08.551Z,568.00
2023-03-22T19:53:38.698Z,564.00
2023-03-22T19:57:09.442Z,560.00
2023-03-22T20:01:08.464Z,560.00
2023-03-22T20:05:16.374Z,559.00
2023-03-22T20:09:09.307Z,558.00
2023-03-22T20:13:08.375Z,554.00
2023-03-22T20:17:10.524Z,552.00
2023-03-22T20:21:08.205Z,547.00
2023-03-22T20:25:08.181Z,549.00
2023-03-22T20:29:08.152Z,546.00
2023-03-22T20:33:08.101Z,541.00
2023-03-22T20:37:08.098Z,541.00
2023-03-22T20:41:08.067Z,542.00
2023-03-22T20:45:08.080Z,545.00
2023-03-22T20:49:08.214Z,550.00
2023-03-22T20:53:08.337Z,559.00
2023-03-22T20:57:08.468Z,556.00
2023-03-22T21:01:08.655Z,550.00
2023-03-22T21:05:08.722Z,549.00
2023-03-22T21:09:08.832Z,551.00
2023-03-22T21:13:08.972Z,556.00
2023-03-22T21:17:09.083Z,554.00
2023-03-22T21:21:09.228Z,552.00
2023-03-22T21:25:09.351Z,556.00
2023-03-22T21:29:09.598Z,562.00
2023-03-22T21:33:09.657Z,562.00
2023-03-22T21:37:09.840Z,561.00
2023-03-22T21:41:10.014Z,565.00
2023-03-22T21:45:10.092Z,568.00
2023-03-22T21:49:10.305Z,569.00
2023-03-22T21:53:10.387Z,571.00
2023-03-22T21:57:10.551Z,566.00
2023-03-22T22:01:10.792Z,561.00
2023-03-22T22:05:10.915Z,563.00
2023-03-22T22:09:11.101Z,564.00
2023-03-22T22:13:11.254Z,564.00
2023-03-22T22:17:11.433Z,561.00
2023-03-22T22:21:11.574Z,561.00
2023-03-22T22:25:11.760Z,564.00
2023-03-22T22:29:11.926Z,564.00
2023-03-22T22:33:12.106Z,566.00
2023-03-22T22:37:12.599Z,565.00
2023-03-22T22:41:12.494Z,561.00
2023-03-22T22:45:12.647Z,567.00
2023-03-22T22:49:12.615Z,577.00
2023-03-22T22:53:12.549Z,581.00
2023-03-22T22:57:12.699Z,580.00
2023-03-22T23:01:12.855Z,578.00
2023-03-22T23:05:13.093Z,581.00
2023-03-22T23:09:13.233Z,581.00
2023-03-22T23:13:13.449Z,579.00
2023-03-22T23:17:13.709Z,585.00
2023-03-22T23:21:13.855Z,584.00
2023-03-22T23:25:14.063Z,581.00
2023-03-22T23:29:14.271Z,579.00
2023-03-22T23:33:14.448Z,578.00
2023-03-22T23:37:14.695Z,582.00
2023-03-22T23:41:14.900Z,586.00
2023-03-22T23:45:14.903Z,588.00
2023-03-22T23:49:14.846Z,593.00
2023-03-22T23:53:14.791Z,593.00
2023-03-22T23:57:14.758Z,589.00
